createdAt,value
2018-08-07T05:05:11.686Z,46.82
2018-08-07T05:10:15.047Z,46.65
2018-08-07T05:15:19.167Z,46.67
2018-08-07T05:20:22.494Z,46.80
2018-08-07T05:25:25.823Z,47.09
2018-08-07T05:30:29.163Z,47.13
2018-08-07T05:35:32.494Z,47.03
2018-08-07T05:40:36.612Z,46.98
2018-08-07T05:45:39.942Z,46.82
2018-08-07T05:50:43.535Z,46.86
2018-08-07T05:55:46.613Z,46.88
2018-08-07T06:00:49.946Z,46.90
2018-08-07T06:05:53.270Z,46.95
2018-08-07T06:10:56.645Z,46.92
2018-08-07T06:16:00.709Z,46.89
2018-08-07T06:21:04.052Z,46.86
2018-08-07T06:26:07.389Z,46.70
2018-08-07T06:31:11.518Z,46.79
2018-08-07T06:36:15.615Z,46.42
2018-08-07T06:41:18.961Z,45.98
2018-08-07T06:46:37.927Z,45.85
2018-08-07T06:51:42.017Z,45.60
2018-08-07T06:56:45.362Z,45.04
2018-08-07T07:01:48.690Z,43.83
2018-08-07T07:06:52.779Z,44.11
2018-08-07T07:11:56.105Z,43.73
2018-08-07T07:16:59.438Z,43.32
2018-08-07T07:22:03.523Z,42.84
2018-08-07T07:27:06.861Z,42.38
2018-08-07T07:32:10.202Z,41.85
2018-08-07T07:37:13.541Z,41.72
2018-08-07T07:42:16.873Z,41.57
2018-08-07T07:47:20.205Z,41.45
2018-08-07T07:52:23.526Z,40.97
2018-08-07T07:57:26.854Z,40.50
2018-08-07T08:02:30.946Z,40.16
2018-08-07T08:07:34.286Z,39.94
2018-08-07T08:12:37.619Z,39.94
2018-08-07T08:17:40.938Z,40.11
2018-08-07T08:22:45.039Z,39.65
2018-08-07T08:27:48.376Z,40.50
2018-08-07T08:32:52.470Z,39.86
2018-08-07T08:37:55.805Z,39.86
2018-08-07T08:42:59.898Z,39.69
2018-08-07T08:48:03.229Z,40.07
2018-08-07T08:53:06.561Z,40.34
2018-08-07T08:58:10.658Z,39.48
2018-08-07T09:03:13.986Z,38.06
2018-08-07T09:08:17.324Z,38.29
2018-08-07T09:13:20.644Z,39.65
2018-08-07T09:18:23.978Z,38.23
2018-08-07T09:23:27.315Z,37.79
2018-08-07T09:28:30.642Z,37.57
2018-08-07T09:33:34.226Z,37.94
2018-08-07T09:38:37.555Z,38.07
2018-08-07T09:43:41.170Z,37.41
2018-08-07T09:48:44.493Z,37.12
2018-08-07T09:53:47.831Z,36.80
2018-08-07T09:58:51.311Z,36.35
2018-08-07T10:03:54.690Z,37.36
2018-08-07T10:08:58.018Z,36.84
2018-08-07T10:14:01.355Z,37.00
2018-08-07T10:19:04.709Z,36.36
2018-08-07T10:24:08.031Z,35.55
2018-08-07T10:29:11.396Z,35.37
2018-08-07T10:34:14.751Z,35.22
2018-08-07T10:39:18.854Z,34.54
2018-08-07T10:44:22.198Z,34.13
2018-08-07T10:49:26.470Z,34.61
2018-08-07T10:54:29.982Z,34.36
2018-08-07T10:59:33.319Z,34.55
2018-08-07T11:04:36.662Z,34.07
2018-08-07T11:09:39.986Z,35.14
2018-08-07T11:14:43.315Z,35.15
2018-08-07T11:19:46.642Z,34.29
2018-08-07T11:24:50.075Z,35.01
2018-08-07T11:29:53.402Z,34.73
2018-08-07T11:34:56.890Z,34.44
2018-08-07T11:40:00.410Z,35.82
2018-08-07T11:45:03.806Z,35.01
2018-08-07T11:50:07.400Z,35.03
2018-08-07T11:55:11.547Z,35.03
2018-08-07T12:00:14.900Z,35.29
2018-08-07T12:05:18.242Z,34.65
2018-08-07T12:10:21.565Z,33.98
2018-08-07T12:15:25.661Z,34.41
2018-08-07T12:20:28.990Z,34.37
2018-08-07T12:25:32.313Z,35.12
2018-08-07T12:30:35.640Z,34.76
2018-08-07T12:35:38.978Z,34.38
2018-08-07T12:40:42.305Z,35.47
2018-08-07T12:45:45.633Z,35.30
2018-08-07T12:50:48.969Z,35.21
2018-08-07T12:55:53.067Z,35.70
2018-08-07T13:00:56.403Z,35.40
2018-08-07T13:05:59.731Z,34.69
2018-08-07T13:11:03.827Z,34.69
2018-08-07T13:16:07.173Z,34.71
2018-08-07T13:21:11.266Z,34.06
2018-08-07T13:26:14.589Z,33.99
2018-08-07T13:31:18.000Z,34.03
2018-08-07T13:36:21.270Z,34.03
2018-08-07T13:41:24.602Z,35.40
2018-08-07T13:46:27.945Z,34.80
2018-08-07T13:51:31.281Z,34.89
2018-08-07T13:56:35.375Z,34.47
2018-08-07T14:01:38.698Z,34.26
2018-08-07T14:06:42.032Z,33.66
2018-08-07T14:11:46.131Z,32.95
2018-08-07T14:16:49.458Z,32.60
2018-08-07T14:21:52.802Z,32.92
2018-08-07T14:26:56.154Z,32.31
2018-08-07T14:31:59.485Z,30.86
2018-08-07T14:37:02.814Z,28.97
2018-08-07T14:42:06.297Z,29.71
2018-08-07T14:47:09.645Z,28.00
2018-08-07T14:52:13.938Z,28.64
2018-08-07T14:57:17.293Z,26.12
2018-08-07T15:02:21.494Z,26.66
2018-08-07T15:07:24.846Z,25.50
2018-08-07T15:12:28.980Z,26.22
2018-08-07T15:17:33.266Z,26.41
2018-08-07T15:22:36.617Z,26.38
2018-08-07T15:27:40.078Z,27.31
2018-08-07T15:32:43.435Z,27.93
2018-08-07T15:37:46.920Z,27.91
2018-08-07T15:42:50.241Z,28.46
2018-08-07T15:47:53.566Z,28.83
2018-08-07T15:52:56.944Z,29.09
2018-08-07T15:58:00.238Z,29.15
2018-08-07T16:03:03.834Z,29.22
2018-08-07T16:08:07.939Z,29.36
2018-08-07T16:13:11.574Z,29.48
2018-08-07T16:18:14.905Z,29.49
2018-08-07T16:23:19.001Z,29.51
2018-08-07T16:28:23.492Z,29.78
2018-08-07T16:33:31.945Z,29.76
2018-08-07T16:38:36.236Z,29.92
2018-08-07T16:43:44.798Z,29.26
2018-08-07T16:48:56.897Z,28.20
2018-08-07T16:54:05.132Z,27.43
2018-08-07T16:59:15.489Z,26.81
2018-08-07T17:04:20.856Z,26.38
2018-08-07T17:09:27.280Z,26.00
2018-08-07T17:14:35.099Z,26.01
2018-08-07T17:19:42.519Z,26.88
2018-08-07T17:24:48.553Z,27.87
2018-08-07T17:29:55.739Z,28.91
2018-08-07T17:35:06.073Z,29.90
2018-08-07T17:40:12.300Z,30.29
2018-08-07T17:45:23.562Z,30.34
2018-08-07T17:50:32.206Z,29.97
2018-08-07T17:55:38.163Z,29.93
2018-08-07T18:00:43.187Z,30.01
2018-08-07T18:05:48.416Z,30.10
2018-08-07T18:10:55.013Z,30.55
2018-08-07T18:16:11.604Z,31.18
2018-08-07T18:21:17.886Z,32.00
2018-08-07T18:26:23.142Z,32.65
2018-08-07T18:31:28.867Z,33.30
2018-08-07T18:36:38.165Z,33.92
2018-08-07T18:41:44.493Z,34.59
2018-08-07T18:46:53.913Z,35.04
2018-08-07T18:51:57.632Z,35.57
2018-08-07T18:57:02.103Z,36.09
2018-08-07T19:02:05.544Z,36.58
2018-08-07T19:07:09.736Z,37.18
2018-08-07T19:12:13.091Z,37.38
2018-08-07T19:17:16.477Z,37.73
2018-08-07T19:22:19.830Z,38.48
2018-08-07T19:27:23.572Z,38.60
2018-08-07T19:32:39.440Z,38.79
2018-08-07T19:37:42.769Z,38.94
2018-08-07T19:42:47.335Z,38.96
2018-08-07T19:47:50.691Z,39.00
2018-08-07T19:52:54.021Z,39.17
2018-08-07T19:57:57.356Z,39.30
2018-08-07T20:03:01.453Z,39.36
2018-08-07T20:08:04.782Z,39.56
2018-08-07T20:13:08.879Z,39.60
2018-08-07T20:18:12.205Z,39.57
2018-08-07T20:23:15.539Z,39.71
2018-08-07T20:28:19.905Z,39.84
2018-08-07T20:33:23.417Z,39.88
2018-08-07T20:38:27.047Z,39.89
2018-08-07T20:43:31.461Z,39.96
2018-08-07T20:48:35.196Z,40.15
2018-08-07T20:53:39.019Z,40.48
2018-08-07T20:58:42.841Z,40.51
2018-08-07T21:03:46.592Z,40.74
2018-08-07T21:08:50.497Z,40.85
2018-08-07T21:13:54.385Z,40.93
2018-08-07T21:18:57.894Z,41.07
2018-08-07T21:24:01.999Z,41.24
2018-08-07T21:29:05.334Z,41.30
2018-08-07T21:34:08.662Z,41.48
2018-08-07T21:39:12.751Z,41.72
2018-08-07T21:44:16.075Z,42.13
2018-08-07T21:49:19.393Z,42.30
2018-08-07T21:54:22.714Z,42.65
2018-08-07T21:59:26.045Z,42.79
2018-08-07T22:04:29.370Z,43.04
2018-08-07T22:09:32.695Z,43.44
2018-08-07T22:14:36.026Z,43.61
2018-08-07T22:19:39.366Z,43.83
2018-08-07T22:24:42.702Z,44.06
2018-08-07T22:29:46.041Z,44.31
